createdAt,value
2022-12-28T00:01:53.936Z,5.61
2022-12-28T00:04:21.881Z,5.64
2022-12-28T00:06:50.700Z,5.71
2022-12-28T00:09:18.959Z,5.77
2022-12-28T00:11:48.319Z,5.72
2022-12-28T00:14:16.183Z,5.63
2022-12-28T00:16:45.311Z,5.85
2022-12-28T00:19:15.527Z,5.77
2022-12-28T00:21:44.541Z,5.82
2022-12-28T00:24:18.950Z,5.88
2022-12-28T00:26:48.527Z,5.90
2022-12-28T00:29:16.562Z,5.83
2022-12-28T00:31:46.017Z,5.69
2022-12-28T00:34:14.790Z,5.62
2022-12-28T00:37:09.948Z,5.52
2022-12-28T00:39:31.292Z,5.56
2022-12-28T00:42:00.786Z,5.36
2022-12-28T00:44:28.937Z,5.33
2022-12-28T00:46:56.950Z,5.26
2022-12-28T00:49:24.853Z,5.43
2022-12-28T00:51:54.278Z,5.32
2022-12-28T00:54:24.011Z,5.34
2022-12-28T00:56:52.166Z,5.34
2022-12-28T00:59:21.635Z,5.58
2022-12-28T01:01:49.756Z,5.43
2022-12-28T01:04:18.092Z,5.52
2022-12-28T01:06:45.940Z,5.32
2022-12-28T01:09:13.947Z,5.39
2022-12-28T01:11:41.900Z,5.32
2022-12-28T01:14:10.094Z,5.31
2022-12-28T01:16:39.624Z,5.38
2022-12-28T01:19:10.017Z,5.37
2022-12-28T01:21:38.085Z,5.32
2022-12-28T01:24:07.944Z,5.40
2022-12-28T01:26:36.215Z,5.37
2022-12-28T01:29:04.238Z,5.33
2022-12-28T01:31:33.924Z,5.45
2022-12-28T01:34:04.189Z,5.32
2022-12-28T01:36:35.025Z,5.24
2022-12-28T01:39:05.824Z,5.25
2022-12-28T01:41:37.860Z,5.40
2022-12-28T01:44:51.635Z,5.34
2022-12-28T01:47:24.584Z,5.33
2022-12-28T01:49:59.825Z,5.51
2022-12-28T01:52:33.955Z,5.45
2022-12-28T01:55:08.059Z,5.57
2022-12-28T01:57:40.878Z,5.48
2022-12-28T02:00:12.009Z,5.56
2022-12-28T02:02:51.537Z,5.66
2022-12-28T02:05:25.561Z,5.64
2022-12-28T02:07:59.753Z,5.66
2022-12-28T02:10:43.685Z,5.80
2022-12-28T02:13:15.361Z,5.72
2022-12-28T02:15:43.775Z,5.83
2022-12-28T02:18:14.453Z,5.81
2022-12-28T02:21:00.583Z,5.84
2022-12-28T02:23:51.886Z,5.98
2022-12-28T02:26:36.876Z,6.00
2022-12-28T02:29:40.379Z,6.07
2022-12-28T02:32:21.471Z,6.11
2022-12-28T02:34:59.115Z,6.05
2022-12-28T02:37:32.451Z,6.23
2022-12-28T02:40:06.140Z,6.12
2022-12-28T02:42:37.807Z,6.31
2022-12-28T02:45:20.695Z,6.29
2022-12-28T02:48:08.208Z,6.39
2022-12-28T02:50:49.625Z,6.26
2022-12-28T02:53:34.961Z,6.27
2022-12-28T02:56:17.059Z,6.31
2022-12-28T02:59:13.668Z,6.40
2022-12-28T03:01:53.355Z,6.35
2022-12-28T03:04:31.365Z,6.43
2022-12-28T03:07:22.667Z,6.42
2022-12-28T03:09:55.602Z,6.55
2022-12-28T03:12:30.588Z,6.47
2022-12-28T03:15:05.517Z,6.35
2022-12-28T03:17:54.266Z,6.61
2022-12-28T03:20:44.773Z,6.51
2022-12-28T03:23:34.599Z,6.50
2022-12-28T03:26:26.610Z,6.50
2022-12-28T03:29:14.165Z,6.48
2022-12-28T03:31:45.285Z,6.72
2022-12-28T03:34:16.305Z,6.65
2022-12-28T03:36:59.158Z,6.76
2022-12-28T03:39:36.543Z,6.78
2022-12-28T03:42:30.376Z,6.79
2022-12-28T03:45:03.003Z,6.87
2022-12-28T03:47:34.857Z,6.85
2022-12-28T03:50:02.891Z,6.92
2022-12-28T03:52:33.675Z,7.00
2022-12-28T03:55:05.003Z,6.93
2022-12-28T03:57:33.668Z,6.97
2022-12-28T04:00:04.812Z,6.93
2022-12-28T04:02:44.035Z,7.16
2022-12-28T04:05:12.990Z,7.18
2022-12-28T04:07:43.598Z,7.05
2022-12-28T04:10:12.709Z,7.09
2022-12-28T04:12:40.696Z,7.16
2022-12-28T04:15:32.210Z,7.19
2022-12-28T04:18:01.965Z,7.30
2022-12-28T04:20:30.164Z,7.44
2022-12-28T04:22:59.727Z,7.38
2022-12-28T04:25:28.670Z,7.41
2022-12-28T04:27:57.297Z,7.30
2022-12-28T04:30:45.620Z,7.40
2022-12-28T04:33:13.838Z,7.50
2022-12-28T04:35:46.203Z,7.58
2022-12-28T04:38:15.846Z,7.56
2022-12-28T04:40:44.042Z,7.76
2022-12-28T04:43:12.132Z,7.72
2022-12-28T04:45:40.475Z,7.77
2022-12-28T04:48:08.641Z,7.64
2022-12-28T04:50:37.571Z,7.62
2022-12-28T04:53:05.427Z,7.47
2022-12-28T04:55:35.587Z,7.57
2022-12-28T04:58:05.100Z,7.64
2022-12-28T05:00:33.040Z,7.75
2022-12-28T05:03:01.184Z,7.76
2022-12-28T05:05:29.696Z,7.76
2022-12-28T05:08:01.674Z,7.70
2022-12-28T05:10:29.899Z,7.78
2022-12-28T05:12:59.185Z,7.73
2022-12-28T05:15:27.084Z,7.86
2022-12-28T05:17:56.283Z,7.96
2022-12-28T05:20:24.231Z,7.88
2022-12-28T05:22:52.076Z,7.72
2022-12-28T05:25:20.026Z,7.80
2022-12-28T05:27:47.958Z,8.00
2022-12-28T05:30:17.680Z,7.98
2022-12-28T05:32:45.605Z,8.04
2022-12-28T05:35:13.481Z,8.09
2022-12-28T05:37:41.527Z,8.12
2022-12-28T05:40:10.646Z,8.10
2022-12-28T05:42:38.748Z,8.19
2022-12-28T05:45:07.597Z,8.27
2022-12-28T05:47:36.991Z,8.28
2022-12-28T05:50:05.465Z,8.16
2022-12-28T05:52:33.476Z,7.96
2022-12-28T05:55:01.368Z,8.10
2022-12-28T05:57:29.432Z,7.92
2022-12-28T05:59:57.304Z,7.92
2022-12-28T06:02:27.593Z,7.98
2022-12-28T06:04:57.298Z,7.96
2022-12-28T06:07:25.245Z,7.90
2022-12-28T06:09:53.211Z,7.88
2022-12-28T06:12:21.058Z,7.86
2022-12-28T06:14:49.006Z,7.93
2022-12-28T06:17:16.966Z,7.81
2022-12-28T06:19:44.908Z,7.85
2022-12-28T06:22:14.195Z,7.97
2022-12-28T06:24:42.164Z,7.80
2022-12-28T06:27:10.168Z,7.88
2022-12-28T06:29:38.080Z,7.89
2022-12-28T06:32:06.292Z,7.96
2022-12-28T06:34:34.112Z,7.82
2022-12-28T06:37:02.029Z,7.93
2022-12-28T06:39:31.397Z,8.11
2022-12-28T06:41:59.378Z,8.10
2022-12-28T06:44:27.924Z,8.14
2022-12-28T06:46:55.900Z,8.02
2022-12-28T06:49:23.802Z,8.02
2022-12-28T06:51:51.774Z,8.19
2022-12-28T06:54:19.603Z,8.06
2022-12-28T06:56:48.940Z,8.05
2022-12-28T06:59:16.974Z,8.01
2022-12-28T07:01:46.105Z,8.11
2022-12-28T07:04:14.644Z,8.11
2022-12-28T07:06:44.548Z,7.97
2022-12-28T07:09:14.604Z,8.04
2022-12-28T07:11:42.800Z,8.05
2022-12-28T07:14:13.019Z,8.11
2022-12-28T07:19:08.372Z,8.22
2022-12-28T07:21:38.394Z,8.23
2022-12-28T07:24:07.455Z,8.25
2022-12-28T07:26:37.222Z,8.17
2022-12-28T07:29:07.126Z,8.29
2022-12-28T07:31:44.724Z,8.15
2022-12-28T07:34:13.812Z,8.09
2022-12-28T07:36:42.034Z,8.23
2022-12-28T07:39:10.583Z,8.26
2022-12-28T07:41:38.596Z,8.22
2022-12-28T07:44:07.265Z,8.36
2022-12-28T07:46:38.095Z,8.21
2022-12-28T07:49:06.781Z,8.24
2022-12-28T07:51:36.529Z,8.20
2022-12-28T07:54:05.826Z,8.26
2022-12-28T07:59:02.515Z,8.35
2022-12-28T08:01:32.371Z,8.15
2022-12-28T08:04:03.831Z,8.31
2022-12-28T08:06:34.411Z,8.25
2022-12-28T08:09:03.341Z,8.34
2022-12-28T08:11:33.314Z,8.32
2022-12-28T08:14:02.134Z,8.37
2022-12-28T08:16:32.953Z,8.40
2022-12-28T08:19:02.515Z,8.43
2022-12-28T08:21:32.905Z,8.49
2022-12-28T08:24:01.756Z,8.57
2022-12-28T08:26:31.338Z,8.68
2022-12-28T08:29:01.622Z,8.65
2022-12-28T08:31:32.009Z,8.73
2022-12-28T08:34:03.149Z,8.60
2022-12-28T08:36:31.223Z,8.79
2022-12-28T08:38:59.516Z,8.90
2022-12-28T08:41:28.767Z,8.74
2022-12-28T08:43:57.705Z,8.77
2022-12-28T08:46:27.373Z,8.85
2022-12-28T08:48:57.528Z,8.88
2022-12-28T08:51:28.254Z,8.89
2022-12-28T08:53:56.115Z,8.89
2022-12-28T08:56:25.699Z,8.98
2022-12-28T08:58:54.019Z,8.90
2022-12-28T09:01:24.328Z,8.90
2022-12-28T09:03:55.542Z,8.96
2022-12-28T09:06:27.575Z,9.10
2022-12-28T09:09:05.512Z,9.06
2022-12-28T09:11:35.824Z,9.00
2022-12-28T09:14:04.757Z,9.06
2022-12-28T09:16:33.011Z,9.04
2022-12-28T09:19:03.186Z,9.21
2022-12-28T09:21:34.610Z,9.19
2022-12-28T09:24:03.557Z,9.15
2022-12-28T09:26:33.588Z,9.21
2022-12-28T09:29:03.326Z,9.19
2022-12-28T09:31:32.627Z,9.15
2022-12-28T09:36:51.146Z,9.32
2022-12-28T09:39:24.603Z,9.41
2022-12-28T09:41:56.332Z,9.38
2022-12-28T09:44:49.511Z,9.45
2022-12-28T09:47:31.886Z,9.39
2022-12-28T09:50:25.870Z,9.40
2022-12-28T09:53:06.496Z,9.66
2022-12-28T09:55:36.502Z,9.66
2022-12-28T09:58:06.617Z,9.65
2022-12-28T10:00:40.258Z,9.59
2022-12-28T10:03:15.908Z,9.52
2022-12-28T10:05:44.525Z,9.54
2022-12-28T10:08:17.004Z,9.62
2022-12-28T10:10:48.901Z,9.49
2022-12-28T10:13:53.022Z,9.70
2022-12-28T10:16:17.264Z,9.59
2022-12-28T10:18:45.601Z,9.57
2022-12-28T10:21:14.650Z,9.63
2022-12-28T10:24:20.733Z,9.73
2022-12-28T10:26:34.307Z,9.64
2022-12-28T10:29:02.337Z,9.64
2022-12-28T10:31:34.972Z,9.64
2022-12-28T10:34:03.762Z,9.80
2022-12-28T10:36:35.063Z,9.69
2022-12-28T10:39:05.674Z,9.77
2022-12-28T10:41:37.983Z,9.76
2022-12-28T10:44:39.036Z,9.82
2022-12-28T10:47:18.261Z,9.77
2022-12-28T10:50:10.539Z,9.81
2022-12-28T10:52:40.184Z,9.89
2022-12-28T10:55:28.022Z,9.84
2022-12-28T11:00:50.441Z,9.94
2022-12-28T11:03:24.879Z,10.04
2022-12-28T11:06:09.282Z,10.10
2022-12-28T11:08:37.298Z,10.03
2022-12-28T11:11:07.149Z,10.21
2022-12-28T11:13:35.199Z,10.17
2022-12-28T11:16:07.909Z,10.08
2022-12-28T11:18:38.049Z,10.20
2022-12-28T11:21:06.477Z,10.06
2022-12-28T11:23:35.538Z,10.08
2022-12-28T11:26:03.867Z,10.13
2022-12-28T11:28:34.938Z,10.10
2022-12-28T11:31:06.267Z,10.16
2022-12-28T11:33:43.455Z,10.09
2022-12-28T11:36:16.289Z,10.10
2022-12-28T11:38:45.429Z,10.44
2022-12-28T11:41:34.284Z,10.12
2022-12-28T11:44:05.597Z,10.18
2022-12-28T11:46:44.989Z,10.22
2022-12-28T11:49:33.910Z,10.30
2022-12-28T11:52:44.777Z,10.29
2022-12-28T11:55:43.115Z,10.24
2022-12-28T11:58:54.099Z,10.22
2022-12-28T12:01:46.120Z,10.37
2022-12-28T12:04:39.489Z,10.32
2022-12-28T12:07:19.694Z,10.24
2022-12-28T12:09:49.921Z,10.29
2022-12-28T12:12:47.455Z,10.20
2022-12-28T12:15:19.183Z,10.35
2022-12-28T12:17:51.438Z,10.22
2022-12-28T12:20:48.719Z,10.35
2022-12-28T12:23:48.780Z,10.19
2022-12-28T12:26:28.843Z,10.29
2022-12-28T12:29:01.792Z,10.27
2022-12-28T12:31:32.628Z,10.22
2022-12-28T12:34:08.354Z,10.21
2022-12-28T12:36:53.676Z,10.15
2022-12-28T12:39:37.049Z,10.19
2022-12-28T12:42:15.457Z,10.18
2022-12-28T12:44:55.542Z,10.09
2022-12-28T12:47:54.669Z,9.86
2022-12-28T12:50:47.608Z,10.05
2022-12-28T12:53:32.269Z,9.89
2022-12-28T12:56:07.658Z,10.03
2022-12-28T12:58:50.221Z,9.95
2022-12-28T13:01:30.070Z,9.95
2022-12-28T13:04:02.953Z,10.04
2022-12-28T13:06:32.477Z,9.96
2022-12-28T13:09:05.594Z,9.93
2022-12-28T13:11:38.087Z,9.87
2022-12-28T13:14:06.958Z,9.87
2022-12-28T13:16:35.251Z,9.89
2022-12-28T13:19:05.917Z,9.88
2022-12-28T13:21:43.977Z,9.99
2022-12-28T13:24:20.759Z,10.07
2022-12-28T13:26:49.085Z,9.77
2022-12-28T13:29:20.020Z,9.83
2022-12-28T13:31:49.865Z,9.84
2022-12-28T13:34:23.326Z,9.84
2022-12-28T13:36:56.499Z,9.74
2022-12-28T13:39:25.841Z,9.81
2022-12-28T13:41:56.376Z,9.87
2022-12-28T13:44:39.480Z,10.00
2022-12-28T13:47:14.020Z,9.99
2022-12-28T13:49:46.140Z,9.88
2022-12-28T13:52:19.881Z,9.87
2022-12-28T13:54:53.735Z,9.93
2022-12-28T14:00:13.142Z,10.10
2022-12-28T14:02:42.756Z,9.82
2022-12-28T14:05:17.757Z,9.88
2022-12-28T14:07:47.937Z,9.96
2022-12-28T14:10:16.696Z,9.88
2022-12-28T14:12:46.304Z,9.91
2022-12-28T14:15:15.029Z,9.88
2022-12-28T14:17:44.574Z,10.03
2022-12-28T14:20:13.125Z,9.85
2022-12-28T14:22:42.208Z,9.75
2022-12-28T14:25:14.707Z,9.89
2022-12-28T14:27:45.332Z,9.90
2022-12-28T14:30:24.677Z,9.90
2022-12-28T14:32:54.114Z,10.00
2022-12-28T14:35:25.561Z,9.91
2022-12-28T14:37:55.530Z,9.80
2022-12-28T14:40:31.325Z,10.03
2022-12-28T14:43:02.466Z,10.12
2022-12-28T14:46:05.345Z,9.95
2022-12-28T14:51:31.140Z,10.05
2022-12-28T14:54:16.775Z,10.02
2022-12-28T14:56:49.871Z,10.06
2022-12-28T14:59:22.641Z,10.15
2022-12-28T15:00:16.329Z,9.95
2022-12-28T15:01:50.891Z,9.96
2022-12-28T15:04:35.953Z,10.03
2022-12-28T15:07:04.227Z,10.06
2022-12-28T15:09:32.161Z,10.08
2022-12-28T15:12:17.805Z,10.09
2022-12-28T15:14:46.132Z,10.15
2022-12-28T15:17:14.157Z,10.07
2022-12-28T15:19:43.372Z,10.09
2022-12-28T15:22:11.370Z,10.12
2022-12-28T15:24:41.561Z,10.01
2022-12-28T15:27:09.797Z,10.14
2022-12-28T15:30:04.217Z,10.02
2022-12-28T15:32:28.068Z,10.15
2022-12-28T15:34:56.123Z,10.03
2022-12-28T15:37:24.071Z,9.96
2022-12-28T15:39:52.072Z,9.93
2022-12-28T15:42:20.065Z,9.89
2022-12-28T15:44:51.176Z,9.87
2022-12-28T15:47:19.735Z,9.94
2022-12-28T15:49:47.681Z,9.86
2022-12-28T15:52:15.654Z,9.86
2022-12-28T15:54:47.102Z,9.91
2022-12-28T15:57:15.833Z,9.89
2022-12-28T15:59:43.896Z,9.99
2022-12-28T16:02:13.763Z,10.12
2022-12-28T16:04:41.965Z,9.98
2022-12-28T16:07:10.236Z,9.88
2022-12-28T16:09:38.187Z,9.91
2022-12-28T16:12:06.505Z,10.05
2022-12-28T16:14:34.540Z,9.95
2022-12-28T16:17:02.638Z,9.99
2022-12-28T16:19:32.001Z,10.03
2022-12-28T16:22:00.009Z,9.98
2022-12-28T16:24:29.218Z,9.91
2022-12-28T16:26:57.288Z,10.04
2022-12-28T16:29:25.316Z,10.01
2022-12-28T16:31:55.182Z,10.02
2022-12-28T16:34:23.549Z,10.03
2022-12-28T16:36:57.106Z,10.08
2022-12-28T16:39:25.683Z,10.15
2022-12-28T16:41:53.848Z,10.14
2022-12-28T16:44:23.493Z,10.12
2022-12-28T16:46:51.962Z,10.01
2022-12-28T16:49:19.980Z,10.00
2022-12-28T16:51:48.582Z,9.98
2022-12-28T16:54:19.524Z,9.99
2022-12-28T16:56:48.175Z,10.14
2022-12-28T16:59:17.721Z,10.15
2022-12-28T17:01:46.243Z,10.02
2022-12-28T17:04:14.934Z,9.93
2022-12-28T17:06:43.916Z,9.81
2022-12-28T17:09:11.875Z,9.74
2022-12-28T17:11:41.204Z,9.62
2022-12-28T17:14:12.546Z,9.50
2022-12-28T17:16:40.778Z,9.42
2022-12-28T17:19:08.951Z,9.45
2022-12-28T17:21:37.159Z,9.37
2022-12-28T17:24:05.878Z,9.40
2022-12-28T17:26:34.018Z,9.29
2022-12-28T17:29:04.325Z,9.38
2022-12-28T17:31:32.411Z,9.32
2022-12-28T17:34:00.504Z,9.48
2022-12-28T17:36:28.699Z,9.26
2022-12-28T17:38:56.723Z,9.32
2022-12-28T17:41:27.755Z,9.31
2022-12-28T17:43:57.341Z,9.34
2022-12-28T17:46:28.983Z,9.27
2022-12-28T17:48:58.733Z,9.08
2022-12-28T17:51:29.035Z,8.98
2022-12-28T17:53:57.682Z,9.04
2022-12-28T17:56:26.299Z,9.03
2022-12-28T17:58:56.507Z,9.02
2022-12-28T18:01:27.993Z,8.87
2022-12-28T18:03:56.542Z,8.83
2022-12-28T18:06:24.811Z,8.77
2022-12-28T18:08:52.962Z,8.68
2022-12-28T18:11:21.158Z,8.65
2022-12-28T18:13:49.772Z,8.70
2022-12-28T18:16:21.263Z,8.65
2022-12-28T18:18:50.631Z,8.67
2022-12-28T18:21:21.975Z,8.64
2022-12-28T18:23:51.927Z,8.64
2022-12-28T18:26:22.271Z,8.56
2022-12-28T18:28:50.706Z,8.51
2022-12-28T18:31:20.049Z,8.68
2022-12-28T18:33:48.615Z,8.64
2022-12-28T18:36:18.692Z,8.56
2022-12-28T18:38:48.365Z,8.50
2022-12-28T18:41:18.406Z,8.60
2022-12-28T18:43:46.554Z,8.48
2022-12-28T18:46:15.192Z,8.54
2022-12-28T18:48:43.728Z,8.47
2022-12-28T18:51:13.846Z,8.38
2022-12-28T18:53:43.942Z,8.50
2022-12-28T18:56:14.114Z,8.53
2022-12-28T18:58:42.826Z,8.39
2022-12-28T19:01:39.751Z,8.35
2022-12-28T19:04:01.819Z,8.45
2022-12-28T19:06:30.354Z,8.45
2022-12-28T19:09:02.056Z,8.45
2022-12-28T19:11:30.680Z,8.37
2022-12-28T19:13:58.695Z,8.36
2022-12-28T19:16:31.386Z,8.46
2022-12-28T19:19:00.407Z,8.42
2022-12-28T19:21:30.791Z,8.32
2022-12-28T19:24:06.913Z,8.34
2022-12-28T19:26:36.624Z,8.46
2022-12-28T19:29:05.133Z,8.37
2022-12-28T19:31:34.461Z,8.28
2022-12-28T19:34:02.537Z,8.36
2022-12-28T19:36:31.065Z,8.38
2022-12-28T19:39:00.563Z,8.39
2022-12-28T19:41:28.478Z,8.43
2022-12-28T19:43:56.362Z,8.42
2022-12-28T19:46:31.412Z,8.35
2022-12-28T19:49:00.272Z,8.26
2022-12-28T19:51:31.768Z,8.25
2022-12-28T19:54:02.018Z,8.34
2022-12-28T19:56:30.160Z,8.23
2022-12-28T19:59:05.581Z,8.20
2022-12-28T20:01:36.761Z,8.23
2022-12-28T20:04:12.415Z,8.37
2022-12-28T20:06:41.691Z,8.29
2022-12-28T20:09:12.154Z,8.37
2022-12-28T20:11:40.791Z,8.42
2022-12-28T20:14:09.529Z,8.42
2022-12-28T20:16:37.811Z,8.44
2022-12-28T20:19:08.182Z,8.48
2022-12-28T20:21:37.241Z,8.55
2022-12-28T20:24:06.645Z,8.50
2022-12-28T20:26:36.756Z,8.48
2022-12-28T20:29:06.322Z,8.58
2022-12-28T20:31:34.401Z,8.60
2022-12-28T20:34:02.332Z,8.56
2022-12-28T20:36:31.910Z,8.59
2022-12-28T20:38:59.847Z,8.64
2022-12-28T20:41:47.206Z,8.71
2022-12-28T20:44:18.581Z,8.75
2022-12-28T20:46:46.868Z,8.78
2022-12-28T20:49:14.867Z,8.81
2022-12-28T20:51:43.823Z,8.89
2022-12-28T20:54:11.836Z,8.81
2022-12-28T20:56:41.853Z,8.90
2022-12-28T20:59:10.608Z,8.89
2022-12-28T21:01:41.316Z,8.99
2022-12-28T21:04:10.504Z,9.23
2022-12-28T21:06:38.663Z,9.36
2022-12-28T21:09:06.854Z,9.32
2022-12-28T21:11:34.868Z,9.51
2022-12-28T21:14:03.108Z,9.59
2022-12-28T21:16:31.114Z,9.52
2022-12-28T21:19:00.597Z,9.85
2022-12-28T21:21:28.600Z,9.93
2022-12-28T21:23:56.685Z,10.01
2022-12-28T21:26:25.810Z,10.06
2022-12-28T21:28:53.937Z,10.29
2022-12-28T21:31:22.064Z,10.13
2022-12-28T21:33:50.041Z,10.11
2022-12-28T21:36:20.425Z,10.33
2022-12-28T21:38:49.659Z,10.28
2022-12-28T21:41:41.402Z,10.31
2022-12-28T21:44:12.205Z,10.34
2022-12-28T21:46:40.456Z,10.38
2022-12-28T21:49:09.447Z,10.43
2022-12-28T21:51:40.581Z,10.46
2022-12-28T21:54:11.169Z,10.36
2022-12-28T21:56:39.948Z,10.48
2022-12-28T21:59:08.515Z,10.45
2022-12-28T22:01:54.887Z,10.43
2022-12-28T22:04:42.334Z,10.54
2022-12-28T22:07:13.769Z,10.53
2022-12-28T22:09:59.446Z,10.68
2022-12-28T22:12:37.192Z,10.62
2022-12-28T22:15:27.547Z,10.48
2022-12-28T22:17:57.088Z,10.38
2022-12-28T22:20:26.044Z,10.28
2022-12-28T22:22:56.617Z,10.28
2022-12-28T22:25:25.718Z,10.36
2022-12-28T22:27:53.919Z,10.33
2022-12-28T22:30:22.043Z,10.35
2022-12-28T22:32:50.078Z,10.37
2022-12-28T22:35:18.110Z,10.31
2022-12-28T22:37:46.953Z,10.22
2022-12-28T22:40:16.574Z,10.31
2022-12-28T22:42:46.133Z,10.35
2022-12-28T22:45:15.897Z,10.36
2022-12-28T22:47:44.778Z,10.41
2022-12-28T22:50:15.164Z,10.39
2022-12-28T22:52:43.815Z,10.44
2022-12-28T22:55:12.176Z,10.44
2022-12-28T22:57:41.630Z,10.42
2022-12-28T23:00:13.684Z,10.45
2022-12-28T23:02:43.015Z,10.37
2022-12-28T23:05:11.444Z,10.44
2022-12-28T23:07:39.550Z,10.46
2022-12-28T23:10:10.410Z,10.60
2022-12-28T23:12:38.595Z,10.58
2022-12-28T23:15:19.482Z,10.54
2022-12-28T23:17:48.416Z,10.65
2022-12-28T23:20:34.170Z,10.74
2022-12-28T23:23:19.402Z,10.57
2022-12-28T23:26:04.575Z,10.69
2022-12-28T23:28:35.852Z,10.64
2022-12-28T23:31:06.221Z,10.81
2022-12-28T23:33:34.304Z,10.82
2022-12-28T23:36:04.418Z,10.52
2022-12-28T23:38:33.542Z,10.48
2022-12-28T23:41:23.715Z,10.48
2022-12-28T23:43:51.953Z,10.41
2022-12-28T23:46:21.395Z,10.58
2022-12-28T23:48:49.521Z,10.59
2022-12-28T23:51:18.068Z,10.78
2022-12-28T23:53:46.160Z,10.72
2022-12-28T23:56:14.140Z,10.66
2022-12-28T23:58:42.152Z,10.83
